sensor_id;sensor_type;location;lat;lon;timestamp;temperature;humidity
5647;DHT22;2845;48.626;9.362;2023-05-07T00:02:13;13.10;99.90
5647;DHT22;2845;48.626;9.362;2023-05-07T00:04:46;12.30;99.90
5647;DHT22;2845;48.626;9.362;2023-05-07T00:07:21;12.30;99.90
5647;DHT22;2845;48.626;9.362;2023-05-07T00:09:55;12.30;99.90
5647;DHT22;2845;48.626;9.362;2023-05-07T00:12:31;12.20;99.90
5647;DHT22;2845;48.626;9.362;2023-05-07T00:15:07;13.30;99.90
5647;DHT22;2845;48.626;9.362;2023-05-07T00:17:42;12.10;99.90
5647;DHT22;2845;48.626;9.362;2023-05-07T00:20:16;12.10;99.90
5647;DHT22;2845;48.626;9.362;2023-05-07T00:22:51;13.20;99.90
5647;DHT22;2845;48.626;9.362;2023-05-07T00:25:25;12.10;99.90
5647;DHT22;2845;48.626;9.362;2023-05-07T00:28:01;12.00;99.90
5647;DHT22;2845;48.626;9.362;2023-05-07T00:30:36;12.10;99.90
5647;DHT22;2845;48.626;9.362;2023-05-07T00:33:10;12.20;99.90
5647;DHT22;2845;48.626;9.362;2023-05-07T00:35:44;12.20;99.90
5647;DHT22;2845;48.626;9.362;2023-05-07T00:38:19;12.20;99.90
5647;DHT22;2845;48.626;9.362;2023-05-07T00:40:53;12.10;99.90
5647;DHT22;2845;48.626;9.362;2023-05-07T00:43:28;12.00;99.90
5647;DHT22;2845;48.626;9.362;2023-05-07T00:46:03;12.10;99.90
5647;DHT22;2845;48.626;9.362;2023-05-07T00:48:38;12.10;99.90
5647;DHT22;2845;48.626;9.362;2023-05-07T00:51:12;12.00;99.90
5647;DHT22;2845;48.626;9.362;2023-05-07T00:53:46;12.10;99.90
5647;DHT22;2845;48.626;9.362;2023-05-07T00:56:21;12.00;99.90
5647;DHT22;2845;48.626;9.362;2023-05-07T00:58:57;12.00;99.90
5647;DHT22;2845;48.626;9.362;2023-05-07T01:01:31;12.00;99.90
5647;DHT22;2845;48.626;9.362;2023-05-07T01:04:06;12.00;99.90
5647;DHT22;2845;48.626;9.362;2023-05-07T01:06:40;11.90;99.90
5647;DHT22;2845;48.626;9.362;2023-05-07T01:09:18;12.00;99.90
5647;DHT22;2845;48.626;9.362;2023-05-07T01:11:55;11.90;99.90
5647;DHT22;2845;48.626;9.362;2023-05-07T01:14:32;11.90;99.90
5647;DHT22;2845;48.626;9.362;2023-05-07T01:17:07;11.90;99.90
5647;DHT22;2845;48.626;9.362;2023-05-07T01:19:41;12.00;99.90
5647;DHT22;2845;48.626;9.362;2023-05-07T01:22:27;11.90;99.90
5647;DHT22;2845;48.626;9.362;2023-05-07T01:25:05;11.90;99.90
5647;DHT22;2845;48.626;9.362;2023-05-07T01:27:40;11.80;99.90
5647;DHT22;2845;48.626;9.362;2023-05-07T01:30:15;11.80;99.90
5647;DHT22;2845;48.626;9.362;2023-05-07T01:32:57;11.80;99.90
5647;DHT22;2845;48.626;9.362;2023-05-07T01:35:37;12.00;99.90
5647;DHT22;2845;48.626;9.362;2023-05-07T01:38:14;11.70;99.90
5647;DHT22;2845;48.626;9.362;2023-05-07T01:40:48;11.70;99.90
5647;DHT22;2845;48.626;9.362;2023-05-07T01:43:22;11.70;99.90
5647;DHT22;2845;48.626;9.362;2023-05-07T01:45:57;11.70;99.90
5647;DHT22;2845;48.626;9.362;2023-05-07T01:48:33;11.50;99.90
5647;DHT22;2845;48.626;9.362;2023-05-07T01:51:08;11.50;99.90
5647;DHT22;2845;48.626;9.362;2023-05-07T01:53:44;12.40;99.90
5647;DHT22;2845;48.626;9.362;2023-05-07T01:56:20;11.50;99.90
5647;DHT22;2845;48.626;9.362;2023-05-07T01:58:55;11.40;99.90
5647;DHT22;2845;48.626;9.362;2023-05-07T02:01:29;11.50;99.90
5647;DHT22;2845;48.626;9.362;2023-05-07T02:04:03;11.50;99.90
5647;DHT22;2845;48.626;9.362;2023-05-07T02:06:38;11.50;99.90
5647;DHT22;2845;48.626;9.362;2023-05-07T02:09:13;11.50;99.90
5647;DHT22;2845;48.626;9.362;2023-05-07T02:11:50;13.20;99.90
5647;DHT22;2845;48.626;9.362;2023-05-07T02:14:24;11.50;99.90
5647;DHT22;2845;48.626;9.362;2023-05-07T02:16:58;11.60;99.90
5647;DHT22;2845;48.626;9.362;2023-05-07T02:19:32;11.50;99.90
5647;DHT22;2845;48.626;9.362;2023-05-07T02:22:06;11.40;99.90
5647;DHT22;2845;48.626;9.362;2023-05-07T02:24:42;11.30;99.90
5647;DHT22;2845;48.626;9.362;2023-05-07T02:27:17;11.30;99.90
5647;DHT22;2845;48.626;9.362;2023-05-07T02:29:52;12.50;99.90
5647;DHT22;2845;48.626;9.362;2023-05-07T02:32:26;11.30;99.90
5647;DHT22;2845;48.626;9.362;2023-05-07T02:35:00;11.30;99.90
5647;DHT22;2845;48.626;9.362;2023-05-07T02:37:34;11.30;99.90
5647;DHT22;2845;48.626;9.362;2023-05-07T02:40:11;11.30;99.90
5647;DHT22;2845;48.626;9.362;2023-05-07T02:42:46;11.30;99.90
5647;DHT22;2845;48.626;9.362;2023-05-07T02:45:20;11.20;99.90
5647;DHT22;2845;48.626;9.362;2023-05-07T02:47:54;11.70;99.90
5647;DHT22;2845;48.626;9.362;2023-05-07T02:50:29;11.10;99.90
5647;DHT22;2845;48.626;9.362;2023-05-07T02:53:03;11.00;99.90
5647;DHT22;2845;48.626;9.362;2023-05-07T02:55:40;11.00;99.90
5647;DHT22;2845;48.626;9.362;2023-05-07T02:58:14;11.60;99.90
5647;DHT22;2845;48.626;9.362;2023-05-07T03:00:49;11.00;99.90
5647;DHT22;2845;48.626;9.362;2023-05-07T03:03:23;10.90;99.90
5647;DHT22;2845;48.626;9.362;2023-05-07T03:05:57;11.00;99.90
5647;DHT22;2845;48.626;9.362;2023-05-07T03:08:32;10.80;99.90
5647;DHT22;2845;48.626;9.362;2023-05-07T03:11:07;10.70;99.90
5647;DHT22;2845;48.626;9.362;2023-05-07T03:13:41;10.80;99.90
5647;DHT22;2845;48.626;9.362;2023-05-07T03:16:18;10.80;99.90
5647;DHT22;2845;48.626;9.362;2023-05-07T03:18:53;10.50;99.90
5647;DHT22;2845;48.626;9.362;2023-05-07T03:21:27;10.60;99.90
5647;DHT22;2845;48.626;9.362;2023-05-07T03:24:01;10.60;99.90
5647;DHT22;2845;48.626;9.362;2023-05-07T03:26:36;10.60;99.90
5647;DHT22;2845;48.626;9.362;2023-05-07T03:29:10;10.50;99.90
5647;DHT22;2845;48.626;9.362;2023-05-07T03:31:45;10.60;99.90
5647;DHT22;2845;48.626;9.362;2023-05-07T03:34:19;10.50;99.90
5647;DHT22;2845;48.626;9.362;2023-05-07T03:36:55;10.50;99.90
5647;DHT22;2845;48.626;9.362;2023-05-07T03:39:29;10.50;99.90
5647;DHT22;2845;48.626;9.362;2023-05-07T03:42:06;10.40;99.90
5647;DHT22;2845;48.626;9.362;2023-05-07T03:44:40;10.40;99.90
5647;DHT22;2845;48.626;9.362;2023-05-07T03:47:14;10.40;99.90
5647;DHT22;2845;48.626;9.362;2023-05-07T03:49:48;10.40;99.90
5647;DHT22;2845;48.626;9.362;2023-05-07T03:52:24;10.30;99.90
5647;DHT22;2845;48.626;9.362;2023-05-07T03:54:59;10.40;99.90
5647;DHT22;2845;48.626;9.362;2023-05-07T03:57:34;10.40;99.90
5647;DHT22;2845;48.626;9.362;2023-05-07T04:00:09;10.50;99.90
5647;DHT22;2845;48.626;9.362;2023-05-07T04:02:44;10.50;99.90
5647;DHT22;2845;48.626;9.362;2023-05-07T04:05:19;10.60;99.90
5647;DHT22;2845;48.626;9.362;2023-05-07T04:07:53;10.30;99.90
5647;DHT22;2845;48.626;9.362;2023-05-07T04:10:27;10.30;99.90
5647;DHT22;2845;48.626;9.362;2023-05-07T04:13:04;10.30;99.90
5647;DHT22;2845;48.626;9.362;2023-05-07T04:15:38;10.30;99.90
5647;DHT22;2845;48.626;9.362;2023-05-07T04:18:12;10.30;99.90
5647;DHT22;2845;48.626;9.362;2023-05-07T04:20:47;10.30;99.90
5647;DHT22;2845;48.626;9.362;2023-05-07T04:23:21;10.40;99.90
5647;DHT22;2845;48.626;9.362;2023-05-07T04:25:58;10.40;99.90
5647;DHT22;2845;48.626;9.362;2023-05-07T04:28:36;10.30;99.90
5647;DHT22;2845;48.626;9.362;2023-05-07T04:31:10;10.30;99.90
5647;DHT22;2845;48.626;9.362;2023-05-07T04:33:44;10.40;99.90
5647;DHT22;2845;48.626;9.362;2023-05-07T04:36:18;10.40;99.90
5647;DHT22;2845;48.626;9.362;2023-05-07T04:38:52;10.30;99.90
5647;DHT22;2845;48.626;9.362;2023-05-07T04:41:27;10.40;99.90
5647;DHT22;2845;48.626;9.362;2023-05-07T04:44:02;10.50;99.90
5647;DHT22;2845;48.626;9.362;2023-05-07T04:46:38;10.40;99.90
5647;DHT22;2845;48.626;9.362;2023-05-07T04:49:12;11.10;99.90
5647;DHT22;2845;48.626;9.362;2023-05-07T04:51:47;10.40;99.90
5647;DHT22;2845;48.626;9.362;2023-05-07T04:54:21;10.50;99.90
5647;DHT22;2845;48.626;9.362;2023-05-07T04:56:56;10.50;99.90
5647;DHT22;2845;48.626;9.362;2023-05-07T04:59:32;10.50;99.90
5647;DHT22;2845;48.626;9.362;2023-05-07T05:02:08;10.60;99.90
5647;DHT22;2845;48.626;9.362;2023-05-07T05:04:42;10.70;99.90
5647;DHT22;2845;48.626;9.362;2023-05-07T05:07:16;10.70;99.90
5647;DHT22;2845;48.626;9.362;2023-05-07T05:09:50;10.90;99.90
5647;DHT22;2845;48.626;9.362;2023-05-07T05:12:27;10.80;99.90
5647;DHT22;2845;48.626;9.362;2023-05-07T05:15:04;10.90;99.90
5647;DHT22;2845;48.626;9.362;2023-05-07T05:17:39;11.10;99.90
5647;DHT22;2845;48.626;9.362;2023-05-07T05:20:13;11.20;99.90
5647;DHT22;2845;48.626;9.362;2023-05-07T05:22:47;12.20;99.90
5647;DHT22;2845;48.626;9.362;2023-05-07T05:25:21;13.50;99.90
5647;DHT22;2845;48.626;9.362;2023-05-07T05:27:57;11.70;99.90
5647;DHT22;2845;48.626;9.362;2023-05-07T05:30:32;12.80;99.90
5647;DHT22;2845;48.626;9.362;2023-05-07T05:33:06;12.20;99.90
5647;DHT22;2845;48.626;9.362;2023-05-07T05:35:42;13.60;99.90
5647;DHT22;2845;48.626;9.362;2023-05-07T05:38:16;12.60;99.90
5647;DHT22;2845;48.626;9.362;2023-05-07T05:40:50;12.60;99.90
5647;DHT22;2845;48.626;9.362;2023-05-07T05:43:27;12.70;99.90
5647;DHT22;2845;48.626;9.362;2023-05-07T05:46:02;12.90;99.90
5647;DHT22;2845;48.626;9.362;2023-05-07T05:48:37;13.00;99.90
5647;DHT22;2845;48.626;9.362;2023-05-07T05:51:11;13.20;99.90
5647;DHT22;2845;48.626;9.362;2023-05-07T05:53:45;13.40;99.90
5647;DHT22;2845;48.626;9.362;2023-05-07T05:56:19;13.50;99.90
5647;DHT22;2845;48.626;9.362;2023-05-07T05:58:54;13.70;99.90
5647;DHT22;2845;48.626;9.362;2023-05-07T06:01:30;13.90;99.90
5647;DHT22;2845;48.626;9.362;2023-05-07T06:04:04;13.90;99.90
5647;DHT22;2845;48.626;9.362;2023-05-07T06:06:38;14.00;99.90
5647;DHT22;2845;48.626;9.362;2023-05-07T06:09:12;14.20;99.90
5647;DHT22;2845;48.626;9.362;2023-05-07T06:11:47;15.40;99.90
5647;DHT22;2845;48.626;9.362;2023-05-07T06:14:21;14.60;99.90
5647;DHT22;2845;48.626;9.362;2023-05-07T06:16:57;14.80;99.90
5647;DHT22;2845;48.626;9.362;2023-05-07T06:19:32;15.00;99.80
5647;DHT22;2845;48.626;9.362;2023-05-07T06:22:06;15.20;99.60
5647;DHT22;2845;48.626;9.362;2023-05-07T06:24:40;15.30;99.30
5647;DHT22;2845;48.626;9.362;2023-05-07T06:27:14;15.50;98.90
5647;DHT22;2845;48.626;9.362;2023-05-07T06:29:48;15.60;98.80
5647;DHT22;2845;48.626;9.362;2023-05-07T06:32:24;15.70;98.60
5647;DHT22;2845;48.626;9.362;2023-05-07T06:34:59;15.90;98.30
5647;DHT22;2845;48.626;9.362;2023-05-07T06:37:33;16.30;98.00
5647;DHT22;2845;48.626;9.362;2023-05-07T06:40:08;16.10;97.80
5647;DHT22;2845;48.626;9.362;2023-05-07T06:42:43;16.20;97.20
5647;DHT22;2845;48.626;9.362;2023-05-07T06:45:17;16.40;97.20
5647;DHT22;2845;48.626;9.362;2023-05-07T06:47:53;16.60;97.00
5647;DHT22;2845;48.626;9.362;2023-05-07T06:50:27;16.80;96.40
5647;DHT22;2845;48.626;9.362;2023-05-07T06:53:01;16.90;96.30
5647;DHT22;2845;48.626;9.362;2023-05-07T06:55:35;17.00;95.90
5647;DHT22;2845;48.626;9.362;2023-05-07T06:58:10;17.10;96.00
5647;DHT22;2845;48.626;9.362;2023-05-07T07:00:44;17.50;95.70
5647;DHT22;2845;48.626;9.362;2023-05-07T07:03:20;17.30;95.80
5647;DHT22;2845;48.626;9.362;2023-05-07T07:05:55;17.20;95.60
5647;DHT22;2845;48.626;9.362;2023-05-07T07:08:29;17.10;95.70
5647;DHT22;2845;48.626;9.362;2023-05-07T07:11:03;17.00;95.90
5647;DHT22;2845;48.626;9.362;2023-05-07T07:13:37;17.10;95.80
5647;DHT22;2845;48.626;9.362;2023-05-07T07:16:12;17.20;95.70
5647;DHT22;2845;48.626;9.362;2023-05-07T07:18:48;17.40;95.60
5647;DHT22;2845;48.626;9.362;2023-05-07T07:21:22;17.40;95.60
5647;DHT22;2845;48.626;9.362;2023-05-07T07:23:57;17.50;95.60
5647;DHT22;2845;48.626;9.362;2023-05-07T07:26:31;17.60;95.80
5647;DHT22;2845;48.626;9.362;2023-05-07T07:29:06;17.70;95.40
5647;DHT22;2845;48.626;9.362;2023-05-07T07:31:40;18.30;95.30
5647;DHT22;2845;48.626;9.362;2023-05-07T07:34:15;17.90;95.20
5647;DHT22;2845;48.626;9.362;2023-05-07T07:36:49;18.10;95.10
5647;DHT22;2845;48.626;9.362;2023-05-07T07:39:24;18.30;94.80
5647;DHT22;2845;48.626;9.362;2023-05-07T07:41:59;18.30;94.60
5647;DHT22;2845;48.626;9.362;2023-05-07T07:44:33;18.40;94.60
5647;DHT22;2845;48.626;9.362;2023-05-07T07:47:07;18.60;94.50
5647;DHT22;2845;48.626;9.362;2023-05-07T07:49:43;18.80;94.20
5647;DHT22;2845;48.626;9.362;2023-05-07T07:52:18;19.00;94.20
5647;DHT22;2845;48.626;9.362;2023-05-07T07:54:52;19.30;94.00
5647;DHT22;2845;48.626;9.362;2023-05-07T07:57:27;19.90;93.80
5647;DHT22;2845;48.626;9.362;2023-05-07T08:00:01;21.20;93.70
5647;DHT22;2845;48.626;9.362;2023-05-07T08:02:36;19.70;93.70
5647;DHT22;2845;48.626;9.362;2023-05-07T08:05:12;19.90;93.10
5647;DHT22;2845;48.626;9.362;2023-05-07T08:07:47;20.00;93.10
5647;DHT22;2845;48.626;9.362;2023-05-07T08:10:24;20.10;92.90
5647;DHT22;2845;48.626;9.362;2023-05-07T08:12:59;20.20;92.90
5647;DHT22;2845;48.626;9.362;2023-05-07T08:15:34;20.10;92.70
5647;DHT22;2845;48.626;9.362;2023-05-07T08:18:08;20.00;92.90
5647;DHT22;2845;48.626;9.362;2023-05-07T08:20:43;20.40;92.90
5647;DHT22;2845;48.626;9.362;2023-05-07T08:23:17;20.10;92.70
5647;DHT22;2845;48.626;9.362;2023-05-07T08:25:51;20.10;92.70
5647;DHT22;2845;48.626;9.362;2023-05-07T08:28:26;20.10;92.80
5647;DHT22;2845;48.626;9.362;2023-05-07T08:31:00;20.40;92.90
5647;DHT22;2845;48.626;9.362;2023-05-07T08:33:35;20.60;92.50
5647;DHT22;2845;48.626;9.362;2023-05-07T08:36:12;20.60;92.30
5647;DHT22;2845;48.626;9.362;2023-05-07T08:38:46;20.90;92.00
5647;DHT22;2845;48.626;9.362;2023-05-07T08:41:20;21.30;92.10
5647;DHT22;2845;48.626;9.362;2023-05-07T08:43:58;21.10;91.90
5647;DHT22;2845;48.626;9.362;2023-05-07T08:46:34;21.30;91.70
5647;DHT22;2845;48.626;9.362;2023-05-07T08:49:09;21.40;91.70
5647;DHT22;2845;48.626;9.362;2023-05-07T08:51:44;21.60;91.50
5647;DHT22;2845;48.626;9.362;2023-05-07T08:54:20;21.70;91.50
5647;DHT22;2845;48.626;9.362;2023-05-07T08:56:55;21.70;91.50
5647;DHT22;2845;48.626;9.362;2023-05-07T08:59:29;21.80;91.50
5647;DHT22;2845;48.626;9.362;2023-05-07T09:02:05;22.20;90.90
5647;DHT22;2845;48.626;9.362;2023-05-07T09:04:41;22.20;90.60
5647;DHT22;2845;48.626;9.362;2023-05-07T09:07:17;22.30;90.70
5647;DHT22;2845;48.626;9.362;2023-05-07T09:09:53;22.50;90.80
5647;DHT22;2845;48.626;9.362;2023-05-07T09:12:27;22.40;90.70
5647;DHT22;2845;48.626;9.362;2023-05-07T09:15:02;22.40;90.60
5647;DHT22;2845;48.626;9.362;2023-05-07T09:17:36;22.40;90.60
5647;DHT22;2845;48.626;9.362;2023-05-07T09:20:11;22.40;90.60
5647;DHT22;2845;48.626;9.362;2023-05-07T09:22:47;22.50;90.70
5647;DHT22;2845;48.626;9.362;2023-05-07T09:25:28;22.40;90.50
5647;DHT22;2845;48.626;9.362;2023-05-07T09:28:03;22.40;90.40
5647;DHT22;2845;48.626;9.362;2023-05-07T09:30:38;22.50;90.40
5647;DHT22;2845;48.626;9.362;2023-05-07T09:33:13;22.70;90.60
5647;DHT22;2845;48.626;9.362;2023-05-07T09:35:51;23.00;90.30
5647;DHT22;2845;48.626;9.362;2023-05-07T09:38:26;23.20;90.00
5647;DHT22;2845;48.626;9.362;2023-05-07T09:41:05;23.20;90.00
5647;DHT22;2845;48.626;9.362;2023-05-07T09:43:41;23.30;89.90
5647;DHT22;2845;48.626;9.362;2023-05-07T09:46:15;23.50;90.00
5647;DHT22;2845;48.626;9.362;2023-05-07T09:48:53;23.50;89.90
5647;DHT22;2845;48.626;9.362;2023-05-07T09:51:45;23.60;89.60
5647;DHT22;2845;48.626;9.362;2023-05-07T09:54:24;23.60;89.60
5647;DHT22;2845;48.626;9.362;2023-05-07T09:57:02;23.60;88.90
5647;DHT22;2845;48.626;9.362;2023-05-07T09:59:37;23.60;89.20
5647;DHT22;2845;48.626;9.362;2023-05-07T10:02:13;23.70;89.50
5647;DHT22;2845;48.626;9.362;2023-05-07T10:04:48;23.90;89.00
5647;DHT22;2845;48.626;9.362;2023-05-07T10:07:23;24.10;88.50
5647;DHT22;2845;48.626;9.362;2023-05-07T10:10:00;23.90;87.60
5647;DHT22;2845;48.626;9.362;2023-05-07T10:12:35;23.90;88.00
5647;DHT22;2845;48.626;9.362;2023-05-07T10:15:12;24.00;88.80
5647;DHT22;2845;48.626;9.362;2023-05-07T10:17:48;24.00;88.70
5647;DHT22;2845;48.626;9.362;2023-05-07T10:20:23;24.00;88.30
5647;DHT22;2845;48.626;9.362;2023-05-07T10:22:59;24.10;87.90
5647;DHT22;2845;48.626;9.362;2023-05-07T10:25:39;24.00;88.30
5647;DHT22;2845;48.626;9.362;2023-05-07T10:28:15;24.10;88.20
5647;DHT22;2845;48.626;9.362;2023-05-07T10:31:00;24.10;88.00
5647;DHT22;2845;48.626;9.362;2023-05-07T10:33:40;24.30;87.10
5647;DHT22;2845;48.626;9.362;2023-05-07T10:36:15;24.40;87.40
5647;DHT22;2845;48.626;9.362;2023-05-07T10:38:50;24.30;87.00
5647;DHT22;2845;48.626;9.362;2023-05-07T10:41:27;24.50;86.80
5647;DHT22;2845;48.626;9.362;2023-05-07T10:44:02;24.60;86.50
5647;DHT22;2845;48.626;9.362;2023-05-07T10:46:36;24.60;84.40
5647;DHT22;2845;48.626;9.362;2023-05-07T10:49:11;24.70;84.40
5647;DHT22;2845;48.626;9.362;2023-05-07T10:51:45;24.70;84.00
5647;DHT22;2845;48.626;9.362;2023-05-07T10:54:47;24.80;82.50
5647;DHT22;2845;48.626;9.362;2023-05-07T10:57:56;24.70;83.70
5647;DHT22;2845;48.626;9.362;2023-05-07T11:00:42;24.80;82.30
5647;DHT22;2845;48.626;9.362;2023-05-07T11:03:19;24.90;82.50
5647;DHT22;2845;48.626;9.362;2023-05-07T11:06:11;24.90;83.00
5647;DHT22;2845;48.626;9.362;2023-05-07T11:08:54;25.00;81.00
5647;DHT22;2845;48.626;9.362;2023-05-07T11:11:48;25.10;81.10
5647;DHT22;2845;48.626;9.362;2023-05-07T11:14:44;25.10;82.00
5647;DHT22;2845;48.626;9.362;2023-05-07T11:17:19;25.10;80.50
5647;DHT22;2845;48.626;9.362;2023-05-07T11:19:54;25.10;79.80
5647;DHT22;2845;48.626;9.362;2023-05-07T11:22:38;25.10;81.50
5647;DHT22;2845;48.626;9.362;2023-05-07T11:25:18;25.50;80.00
5647;DHT22;2845;48.626;9.362;2023-05-07T11:27:53;25.40;79.50
5647;DHT22;2845;48.626;9.362;2023-05-07T11:30:29;25.50;79.60
5647;DHT22;2845;48.626;9.362;2023-05-07T11:33:03;26.70;78.30
5647;DHT22;2845;48.626;9.362;2023-05-07T11:35:38;25.60;79.40
5647;DHT22;2845;48.626;9.362;2023-05-07T11:38:13;25.50;79.40
5647;DHT22;2845;48.626;9.362;2023-05-07T11:40:49;25.40;79.30
5647;DHT22;2845;48.626;9.362;2023-05-07T11:43:28;25.20;79.00
5647;DHT22;2845;48.626;9.362;2023-05-07T11:46:08;25.10;79.80
5647;DHT22;2845;48.626;9.362;2023-05-07T11:48:43;25.00;80.60
5647;DHT22;2845;48.626;9.362;2023-05-07T11:51:22;25.20;78.70
5647;DHT22;2845;48.626;9.362;2023-05-07T11:54:03;25.40;78.70
5647;DHT22;2845;48.626;9.362;2023-05-07T11:56:41;25.70;78.10
5647;DHT22;2845;48.626;9.362;2023-05-07T11:59:18;25.80;78.90
5647;DHT22;2845;48.626;9.362;2023-05-07T12:01:56;25.90;78.30
5647;DHT22;2845;48.626;9.362;2023-05-07T12:04:31;26.10;78.50
5647;DHT22;2845;48.626;9.362;2023-05-07T12:07:11;26.30;79.00
5647;DHT22;2845;48.626;9.362;2023-05-07T12:09:46;26.30;78.30
5647;DHT22;2845;48.626;9.362;2023-05-07T12:12:20;26.20;78.00
5647;DHT22;2845;48.626;9.362;2023-05-07T12:14:55;25.50;78.90
5647;DHT22;2845;48.626;9.362;2023-05-07T12:17:30;24.90;79.30
5647;DHT22;2845;48.626;9.362;2023-05-07T12:20:06;24.30;81.20
5647;DHT22;2845;48.626;9.362;2023-05-07T12:22:42;23.80;82.50
5647;DHT22;2845;48.626;9.362;2023-05-07T12:25:19;23.50;83.40
5647;DHT22;2845;48.626;9.362;2023-05-07T12:27:53;23.00;84.60
5647;DHT22;2845;48.626;9.362;2023-05-07T12:30:28;22.60;85.60
5647;DHT22;2845;48.626;9.362;2023-05-07T12:33:04;22.30;86.60
5647;DHT22;2845;48.626;9.362;2023-05-07T12:35:40;22.10;88.30
5647;DHT22;2845;48.626;9.362;2023-05-07T12:38:16;21.90;89.80
5647;DHT22;2845;48.626;9.362;2023-05-07T12:40:54;21.80;90.50
5647;DHT22;2845;48.626;9.362;2023-05-07T12:43:29;21.60;90.70
5647;DHT22;2845;48.626;9.362;2023-05-07T12:46:05;21.40;90.50
5647;DHT22;2845;48.626;9.362;2023-05-07T12:48:45;21.30;90.70
5647;DHT22;2845;48.626;9.362;2023-05-07T12:51:19;21.20;91.00
5647;DHT22;2845;48.626;9.362;2023-05-07T12:53:56;21.10;91.30
5647;DHT22;2845;48.626;9.362;2023-05-07T12:56:31;20.90;91.70
5647;DHT22;2845;48.626;9.362;2023-05-07T12:59:09;20.80;91.50
5647;DHT22;2845;48.626;9.362;2023-05-07T13:01:44;20.80;91.50
5647;DHT22;2845;48.626;9.362;2023-05-07T13:04:20;20.60;91.90
5647;DHT22;2845;48.626;9.362;2023-05-07T13:06:54;20.50;92.20
5647;DHT22;2845;48.626;9.362;2023-05-07T13:09:31;20.40;92.80
5647;DHT22;2845;48.626;9.362;2023-05-07T13:12:05;20.40;93.00
5647;DHT22;2845;48.626;9.362;2023-05-07T13:14:39;20.10;93.20
5647;DHT22;2845;48.626;9.362;2023-05-07T13:17:14;19.90;93.60
5647;DHT22;2845;48.626;9.362;2023-05-07T13:19:49;19.80;93.90
5647;DHT22;2845;48.626;9.362;2023-05-07T13:22:23;19.70;93.90
5647;DHT22;2845;48.626;9.362;2023-05-07T13:24:58;19.70;93.90
5647;DHT22;2845;48.626;9.362;2023-05-07T13:27:32;19.80;94.00
5647;DHT22;2845;48.626;9.362;2023-05-07T13:30:10;19.70;94.10
5647;DHT22;2845;48.626;9.362;2023-05-07T13:32:45;19.80;94.10
5647;DHT22;2845;48.626;9.362;2023-05-07T13:35:22;19.70;93.70
5647;DHT22;2845;48.626;9.362;2023-05-07T13:37:56;19.70;93.50
5647;DHT22;2845;48.626;9.362;2023-05-07T13:40:30;19.60;93.30
5647;DHT22;2845;48.626;9.362;2023-05-07T13:43:05;22.20;93.40
5647;DHT22;2845;48.626;9.362;2023-05-07T13:45:40;19.40;93.40
5647;DHT22;2845;48.626;9.362;2023-05-07T13:48:15;19.30;93.80
5647;DHT22;2845;48.626;9.362;2023-05-07T13:50:50;19.10;94.20
5647;DHT22;2845;48.626;9.362;2023-05-07T13:53:24;19.00;94.60
5647;DHT22;2845;48.626;9.362;2023-05-07T13:56:01;18.70;94.80
5647;DHT22;2845;48.626;9.362;2023-05-07T13:58:37;18.50;95.30
5647;DHT22;2845;48.626;9.362;2023-05-07T14:01:30;18.20;96.00
5647;DHT22;2845;48.626;9.362;2023-05-07T14:04:08;18.00;96.70
5647;DHT22;2845;48.626;9.362;2023-05-07T14:06:45;17.60;97.60
5647;DHT22;2845;48.626;9.362;2023-05-07T14:09:19;17.30;98.50
5647;DHT22;2845;48.626;9.362;2023-05-07T14:11:53;17.20;99.30
5647;DHT22;2845;48.626;9.362;2023-05-07T14:14:29;17.00;99.90
5647;DHT22;2845;48.626;9.362;2023-05-07T14:17:03;16.80;99.90
5647;DHT22;2845;48.626;9.362;2023-05-07T14:19:38;16.80;99.90
5647;DHT22;2845;48.626;9.362;2023-05-07T14:22:15;16.70;99.90
5647;DHT22;2845;48.626;9.362;2023-05-07T14:24:49;16.70;99.90
5647;DHT22;2845;48.626;9.362;2023-05-07T14:27:43;16.60;99.90
5647;DHT22;2845;48.626;9.362;2023-05-07T14:30:17;16.40;99.90
5647;DHT22;2845;48.626;9.362;2023-05-07T14:32:51;16.20;99.90
5647;DHT22;2845;48.626;9.362;2023-05-07T14:35:26;16.30;99.90
5647;DHT22;2845;48.626;9.362;2023-05-07T14:38:01;15.90;99.90
5647;DHT22;2845;48.626;9.362;2023-05-07T14:40:35;15.90;99.90
5647;DHT22;2845;48.626;9.362;2023-05-07T14:43:09;15.90;99.90
5647;DHT22;2845;48.626;9.362;2023-05-07T14:45:43;15.90;99.90
5647;DHT22;2845;48.626;9.362;2023-05-07T14:48:17;15.90;99.90
5647;DHT22;2845;48.626;9.362;2023-05-07T14:50:53;15.90;99.90
5647;DHT22;2845;48.626;9.362;2023-05-07T14:53:31;16.50;99.90
5647;DHT22;2845;48.626;9.362;2023-05-07T14:56:05;15.90;99.90
5647;DHT22;2845;48.626;9.362;2023-05-07T14:58:39;15.80;99.90
5647;DHT22;2845;48.626;9.362;2023-05-07T15:01:14;15.80;99.90
5647;DHT22;2845;48.626;9.362;2023-05-07T15:03:48;15.80;99.90
5647;DHT22;2845;48.626;9.362;2023-05-07T15:06:27;15.90;99.90
5647;DHT22;2845;48.626;9.362;2023-05-07T15:09:11;16.00;99.90
5647;DHT22;2845;48.626;9.362;2023-05-07T15:11:46;16.10;99.90
5647;DHT22;2845;48.626;9.362;2023-05-07T15:14:20;18.20;99.90
5647;DHT22;2845;48.626;9.362;2023-05-07T15:16:55;16.20;99.90
5647;DHT22;2845;48.626;9.362;2023-05-07T15:19:30;16.40;99.90
5647;DHT22;2845;48.626;9.362;2023-05-07T15:22:04;16.50;99.90
5647;DHT22;2845;48.626;9.362;2023-05-07T15:24:40;16.60;99.90
5647;DHT22;2845;48.626;9.362;2023-05-07T15:27:15;16.60;99.90
5647;DHT22;2845;48.626;9.362;2023-05-07T15:29:51;16.60;99.90
5647;DHT22;2845;48.626;9.362;2023-05-07T15:32:25;16.70;99.90
5647;DHT22;2845;48.626;9.362;2023-05-07T15:35:02;16.70;99.90
5647;DHT22;2845;48.626;9.362;2023-05-07T15:37:36;16.80;99.90
5647;DHT22;2845;48.626;9.362;2023-05-07T15:40:12;17.00;99.90
5647;DHT22;2845;48.626;9.362;2023-05-07T15:42:47;17.00;99.90
5647;DHT22;2845;48.626;9.362;2023-05-07T15:45:21;17.10;99.90
5647;DHT22;2845;48.626;9.362;2023-05-07T15:47:59;17.20;99.90
5647;DHT22;2845;48.626;9.362;2023-05-07T15:50:34;17.40;99.90
5647;DHT22;2845;48.626;9.362;2023-05-07T15:53:08;17.30;99.90
5647;DHT22;2845;48.626;9.362;2023-05-07T15:55:44;17.40;99.90
5647;DHT22;2845;48.626;9.362;2023-05-07T15:58:21;17.40;99.90
5647;DHT22;2845;48.626;9.362;2023-05-07T16:00:56;17.40;99.90
5647;DHT22;2845;48.626;9.362;2023-05-07T16:03:31;17.60;99.90
5647;DHT22;2845;48.626;9.362;2023-05-07T16:06:06;17.70;99.90
5647;DHT22;2845;48.626;9.362;2023-05-07T16:08:42;17.70;99.90
5647;DHT22;2845;48.626;9.362;2023-05-07T16:11:18;17.70;99.90
5647;DHT22;2845;48.626;9.362;2023-05-07T16:13:52;17.70;99.90
5647;DHT22;2845;48.626;9.362;2023-05-07T16:16:26;17.60;99.90
5647;DHT22;2845;48.626;9.362;2023-05-07T16:19:04;17.50;99.90
5647;DHT22;2845;48.626;9.362;2023-05-07T16:21:39;17.30;99.90
5647;DHT22;2845;48.626;9.362;2023-05-07T16:24:13;17.30;99.90
5647;DHT22;2845;48.626;9.362;2023-05-07T16:26:52;17.40;99.90
5647;DHT22;2845;48.626;9.362;2023-05-07T16:29:26;17.20;99.90
5647;DHT22;2845;48.626;9.362;2023-05-07T16:32:00;17.20;99.90
5647;DHT22;2845;48.626;9.362;2023-05-07T16:34:35;17.30;99.90
5647;DHT22;2845;48.626;9.362;2023-05-07T16:37:09;17.20;99.90
5647;DHT22;2845;48.626;9.362;2023-05-07T16:39:43;17.20;99.90
5647;DHT22;2845;48.626;9.362;2023-05-07T16:42:19;17.20;99.90
5647;DHT22;2845;48.626;9.362;2023-05-07T16:44:54;17.10;99.90
5647;DHT22;2845;48.626;9.362;2023-05-07T16:47:28;17.10;99.90
5647;DHT22;2845;48.626;9.362;2023-05-07T16:50:04;17.00;99.90
5647;DHT22;2845;48.626;9.362;2023-05-07T16:52:39;16.20;99.90
5647;DHT22;2845;48.626;9.362;2023-05-07T16:55:13;16.90;99.90
5647;DHT22;2845;48.626;9.362;2023-05-07T16:57:49;16.90;99.90